Time;durP1;ratioP1;P1;durP2;ratioP2;P2;SDS_P1;SDS_P2;PMS_P1;PMS_P2;Temp;Humidity;BMP_temperature;BMP_pressure;BME280_temperature;BME280_humidity;BME280_pressure;Samples;Min_cycle;Max_cycle;Signal;HPM_P1;HPM_P2
2023/01/28 00:00:05;;;;;;;6.65;3.30;;;22.10;39.00;;;;;;5065521;28;20076;-47
2023/01/28 00:02:32;;;;;;;7.22;2.90;;;22.00;40.10;;;;;;5066216;28;20064;-43
2023/01/28 00:05:00;;;;;;;6.90;3.00;;;22.00;40.70;;;;;;5064279;28;20912;-44
2023/01/28 00:07:28;;;;;;;10.52;4.68;;;21.90;40.70;;;;;;5065736;28;20056;-44
2023/01/28 00:09:55;;;;;;;4.18;3.17;;;21.80;40.90;;;;;;5066146;28;20083;-43
2023/01/28 00:12:23;;;;;;;8.32;3.28;;;21.80;40.90;;;;;;5066123;28;20265;-46
2023/01/28 00:14:51;;;;;;;6.93;4.13;;;21.80;41.00;;;;;;5065677;28;20115;-45
2023/01/28 00:17:19;;;;;;;5.82;4.50;;;21.70;41.10;;;;;;5053843;28;20052;-45
2023/01/28 00:19:46;;;;;;;6.57;4.05;;;21.70;41.20;;;;;;5045018;28;20501;-47
2023/01/28 00:22:16;;;;;;;4.35;3.95;;;21.60;41.20;;;;;;5048323;28;20061;-47
2023/01/28 00:24:43;;;;;;;5.72;3.47;;;21.60;41.10;;;;;;5045300;28;20600;-46
2023/01/28 00:27:11;;;;;;;7.93;5.35;;;21.60;41.20;;;;;;5045597;28;20045;-47
2023/01/28 00:29:38;;;;;;;3.35;3.05;;;21.50;41.10;;;;;;5045466;28;20124;-46
2023/01/28 00:32:07;;;;;;;5.05;4.55;;;21.50;41.10;;;;;;5027685;28;20053;-44
2023/01/28 00:34:37;;;;;;;15.30;5.63;;;21.40;41.20;;;;;;5045888;28;20052;-45
2023/01/28 00:37:07;;;;;;;4.63;4.22;;;21.30;41.30;;;;;;5044407;28;20049;-44
2023/01/28 00:39:34;;;;;;;7.53;4.45;;;21.40;41.40;;;;;;5065795;28;20040;-45
2023/01/28 00:42:04;;;;;;;5.70;3.60;;;21.30;41.20;;;;;;5047330;28;20072;-45
2023/01/28 00:44:32;;;;;;;6.15;4.93;;;21.30;41.40;;;;;;5065272;28;20140;-48
2023/01/28 00:47:03;;;;;;;4.80;3.53;;;21.20;41.30;;;;;;5063821;28;20521;-45
2023/01/28 00:49:31;;;;;;;6.18;4.50;;;21.20;41.40;;;;;;5065280;28;20141;-46
2023/01/28 00:51:58;;;;;;;5.43;4.43;;;21.10;41.40;;;;;;5063691;28;20044;-46
2023/01/28 00:54:25;;;;;;;4.32;3.40;;;21.10;41.40;;;;;;5065154;28;20051;-46
2023/01/28 00:56:53;;;;;;;5.10;4.20;;;21.10;41.40;;;;;;5062991;28;20060;-47
2023/01/28 00:59:20;;;;;;;4.00;3.67;;;21.00;41.50;;;;;;5063353;28;20090;-44
2023/01/28 01:01:47;;;;;;;6.63;3.45;;;21.00;41.60;;;;;;5064975;28;20066;-47
2023/01/28 01:04:25;;;;;;;4.13;3.83;;;21.00;41.50;;;;;;5065007;28;20048;-47
2023/01/28 01:06:54;;;;;;;4.72;3.40;;;20.90;41.40;;;;;;5065223;28;20036;-44
2023/01/28 01:09:23;;;;;;;3.22;2.95;;;20.90;41.40;;;;;;5065161;28;20055;-45
2023/01/28 01:11:50;;;;;;;3.72;3.45;;;20.80;41.30;;;;;;5065124;28;20448;-44
2023/01/28 01:14:19;;;;;;;4.18;3.47;;;20.80;41.30;;;;;;5063210;28;20098;-43
2023/01/28 01:16:46;;;;;;;3.03;2.83;;;20.80;41.20;;;;;;5063392;28;20124;-44
2023/01/28 01:19:14;;;;;;;4.35;3.67;;;20.70;41.20;;;;;;5064820;28;20078;-45
2023/01/28 01:21:43;;;;;;;3.40;3.10;;;20.70;41.20;;;;;;5060276;28;20439;-43
2023/01/28 01:24:14;;;;;;;3.88;3.15;;;20.70;41.40;;;;;;5045047;28;20412;-44
2023/01/28 01:26:42;;;;;;;3.13;2.92;;;20.60;41.40;;;;;;5060729;28;20059;-45
2023/01/28 01:29:09;;;;;;;2.90;2.67;;;20.60;41.50;;;;;;5056751;28;20056;-47
2023/01/28 01:31:40;;;;;;;3.15;2.85;;;20.60;41.50;;;;;;5043321;28;20049;-45
2023/01/28 01:34:09;;;;;;;3.83;2.10;;;20.50;41.20;;;;;;5044522;28;20049;-43
2023/01/28 01:36:36;;;;;;;4.90;2.60;;;20.50;41.30;;;;;;5044785;28;20037;-45
2023/01/28 01:39:05;;;;;;;2.60;2.40;;;20.50;41.30;;;;;;5059560;28;20037;-43
2023/01/28 01:41:34;;;;;;;2.92;2.72;;;20.50;41.40;;;;;;5064375;28;20102;-44
2023/01/28 01:44:04;;;;;;;3.28;3.00;;;20.40;41.20;;;;;;5059897;28;20080;-45
2023/01/28 01:46:37;;;;;;;6.93;2.72;;;20.40;41.40;;;;;;5043518;28;20071;-46
2023/01/28 01:49:13;;;;;;;11.00;2.90;;;20.40;42.00;;;;;;5043465;28;20517;-48
2023/01/28 01:51:40;;;;;;;3.67;3.35;;;20.40;41.40;;;;;;5056580;28;20431;-47
2023/01/28 01:54:08;;;;;;;3.75;2.88;;;20.30;41.60;;;;;;5063002;28;20060;-46
2023/01/28 01:56:40;;;;;;;4.32;2.17;;;20.30;41.70;;;;;;5064099;28;20059;-46
2023/01/28 01:59:12;;;;;;;2.90;2.53;;;20.30;41.70;;;;;;5046489;28;20049;-44
2023/01/28 02:01:40;;;;;;;2.30;2.10;;;20.30;41.90;;;;;;5055469;28;20040;-49
2023/01/28 02:04:15;;;;;;;3.45;2.92;;;20.20;41.80;;;;;;5043394;28;20044;-43
2023/01/28 02:06:44;;;;;;;3.15;2.30;;;20.20;41.80;;;;;;5044536;28;20212;-45
2023/01/28 02:09:23;;;;;;;2.65;2.38;;;20.20;41.90;;;;;;5044682;28;20044;-43
2023/01/28 02:11:55;;;;;;;3.00;2.70;;;20.20;41.70;;;;;;5044123;28;20529;-45
2023/01/28 02:14:25;;;;;;;2.20;2.03;;;20.10;41.70;;;;;;5043153;28;20049;-43
2023/01/28 02:16:52;;;;;;;2.53;2.33;;;20.10;41.90;;;;;;5044649;28;20045;-44
2023/01/28 02:19:24;;;;;;;2.30;1.95;;;20.10;41.90;;;;;;5044388;28;20128;-47
2023/01/28 02:22:28;;;;;;;2.97;2.78;;;20.10;41.80;;;;;;5048359;28;20044;-45
2023/01/28 02:25:32;;;;;;;2.97;2.70;;;20.10;41.80;;;;;;5062857;28;20940;-44
2023/01/28 02:28:27;;;;;;;3.22;3.03;;;20.10;42.00;;;;;;5059963;28;20123;-45
2023/01/28 02:31:00;;;;;;;2.40;2.30;;;20.00;41.90;;;;;;5058430;28;20121;-51
2023/01/28 02:33:34;;;;;;;1.98;1.85;;;20.00;42.10;;;;;;5063712;28;20041;-45
2023/01/28 02:36:16;;;;;;;2.80;2.60;;;20.00;42.10;;;;;;5063330;28;20264;-47
2023/01/28 02:38:50;;;;;;;2.45;2.20;;;20.00;42.10;;;;;;5064726;28;20059;-44
2023/01/28 02:41:28;;;;;;;2.17;2.08;;;20.00;42.00;;;;;;5062849;28;20102;-44
2023/01/28 02:43:56;;;;;;;2.83;2.63;;;19.90;41.70;;;;;;5059525;28;20045;-43
2023/01/28 02:49:25;;;;;;;3.65;3.45;;;19.90;41.60;;;;;;5046235;28;20064;-47
2023/01/28 02:52:04;;;;;;;3.47;3.28;;;19.90;41.80;;;;;;5062671;28;20417;-44
2023/01/28 02:54:42;;;;;;;3.47;3.20;;;19.80;41.60;;;;;;5067815;28;20182;-44
2023/01/28 02:57:21;;;;;;;2.75;2.53;;;19.90;41.60;;;;;;5047641;28;20056;-45
2023/01/28 02:59:58;;;;;;;3.00;2.72;;;19.90;41.50;;;;;;5047916;28;20390;-44
2023/01/28 03:02:35;;;;;;;3.03;2.67;;;19.80;41.50;;;;;;5062830;28;20469;-46
2023/01/28 03:05:12;;;;;;;2.97;2.78;;;19.80;41.30;;;;;;5047620;28;20040;-45
2023/01/28 03:07:40;;;;;;;2.03;1.90;;;19.80;41.50;;;;;;5067354;28;20064;-48
2023/01/28 03:10:11;;;;;;;3.97;2.72;;;19.80;41.60;;;;;;5067338;28;20040;-47
2023/01/28 03:38:19;;;;;;;2.63;2.42;;;19.60;41.20;;;;;;5053825;28;20068;-43
2023/01/28 03:40:51;;;;;;;;;;;19.60;41.40;;;;;;5066029;28;20059;-44
2023/01/28 03:43:20;;;;;;;1.95;1.85;;;19.50;42.50;;;;;;5054026;28;20505;-43
2023/01/28 03:45:50;;;;;;;2.38;2.28;;;19.50;41.80;;;;;;5082389;28;20047;-47
2023/01/28 03:48:19;;;;;;;2.95;2.75;;;19.50;41.50;;;;;;5065200;28;20037;-44
2023/01/28 03:50:48;;;;;;;3.33;3.13;;;19.50;41.40;;;;;;5082060;28;20040;-46
2023/01/28 03:53:16;;;;;;;2.72;2.55;;;19.50;41.20;;;;;;5065034;28;20048;-43
2023/01/28 03:55:46;;;;;;;3.08;2.88;;;19.50;41.30;;;;;;5060106;28;20049;-44
2023/01/28 03:58:16;;;;;;;3.00;2.50;;;19.50;41.30;;;;;;5044758;28;20058;-45
2023/01/28 04:00:43;;;;;;;2.72;2.55;;;19.50;41.80;;;;;;5044794;28;20060;-44
2023/01/28 04:03:15;;;;;;;3.53;3.33;;;19.50;41.10;;;;;;5044846;28;20041;-43
2023/01/28 04:05:58;;;;;;;3.17;2.88;;;19.50;41.10;;;;;;5044679;28;20528;-43
2023/01/28 04:08:29;;;;;;;2.47;2.38;;;19.50;41.10;;;;;;5063829;28;20044;-44
2023/01/28 04:11:24;;;;;;;4.68;2.40;;;19.50;41.20;;;;;;5064745;28;20044;-44
2023/01/28 04:13:51;;;;;;;2.38;2.20;;;19.50;41.20;;;;;;5064986;28;20040;-44
2023/01/28 04:16:19;;;;;;;2.88;2.67;;;19.50;41.30;;;;;;5064579;28;20408;-45
2023/01/28 04:18:47;;;;;;;2.30;2.17;;;19.50;41.20;;;;;;5064569;28;20045;-43
2023/01/28 04:21:15;;;;;;;2.88;2.78;;;19.50;41.20;;;;;;5064086;28;20118;-44
2023/01/28 04:23:44;;;;;;;2.22;2.03;;;19.50;41.10;;;;;;5060934;28;20080;-43
2023/01/28 04:26:14;;;;;;;3.17;2.97;;;19.50;41.00;;;;;;5064078;28;20531;-44
2023/01/28 04:28:43;;;;;;;2.85;2.63;;;19.50;41.00;;;;;;5062727;28;20064;-43
2023/01/28 04:31:10;;;;;;;2.55;2.33;;;19.50;41.00;;;;;;5061689;28;20215;-44
2023/01/28 04:33:56;;;;;;;3.40;3.20;;;19.40;40.90;;;;;;5065684;28;20066;-44
2023/01/28 04:36:41;;;;;;;1.95;1.85;;;19.40;41.00;;;;;;5061985;28;20048;-43
2023/01/28 04:39:23;;;;;;;2.67;2.47;;;19.40;40.90;;;;;;5064199;28;20048;-43
2023/01/28 04:42:09;;;;;;;2.42;2.10;;;19.40;40.90;;;;;;5063807;28;20386;-42
2023/01/28 04:44:51;;;;;;;2.53;2.35;;;19.40;41.00;;;;;;5043908;28;20068;-44
2023/01/28 04:47:34;;;;;;;2.78;2.58;;;19.40;40.90;;;;;;5043965;28;20041;-43
2023/01/28 04:50:33;;;;;;;3.60;2.45;;;19.40;40.80;;;;;;5026148;28;20049;-46
2023/01/28 04:53:22;;;;;;;2.35;1.90;;;19.40;41.00;;;;;;5015443;28;20052;-44
2023/01/28 04:55:58;;;;;;;2.58;2.38;;;19.40;41.00;;;;;;5032060;28;20055;-47
2023/01/28 04:58:34;;;;;;;2.85;2.65;;;19.30;40.80;;;;;;5026102;28;20072;-46
2023/01/28 05:01:07;;;;;;;3.28;3.05;;;19.30;40.80;;;;;;5025520;28;20052;-43
2023/01/28 05:03:34;;;;;;;3.13;2.85;;;19.30;40.80;;;;;;5025310;28;20584;-45
2023/01/28 05:06:03;;;;;;;3.50;2.88;;;19.30;40.70;;;;;;5025089;28;20052;-46
2023/01/28 05:08:41;;;;;;;3.25;2.85;;;19.30;40.50;;;;;;5025086;28;20060;-45
2023/01/28 05:11:08;;;;;;;3.53;3.22;;;19.30;40.50;;;;;;5024956;28;20059;-44
2023/01/28 05:13:35;;;;;;;3.20;2.90;;;19.40;40.60;;;;;;5025436;28;20518;-44
2023/01/28 05:16:05;;;;;;;2.60;2.40;;;19.30;40.50;;;;;;5024850;28;20053;-44
2023/01/28 05:18:33;;;;;;;3.53;2.38;;;19.30;40.30;;;;;;5024651;28;20424;-44
2023/01/28 05:21:13;;;;;;;3.03;2.83;;;19.30;40.30;;;;;;5041910;28;20131;-45
2023/01/28 05:23:41;;;;;;;3.50;3.30;;;19.30;40.40;;;;;;5041415;28;20120;-44
2023/01/28 05:26:10;;;;;;;3.70;3.38;;;19.30;40.30;;;;;;5041681;28;20812;-46
2023/01/28 05:28:37;;;;;;;2.83;2.70;;;19.30;40.30;;;;;;5042859;28;20429;-44
2023/01/28 05:31:07;;;;;;;3.08;2.88;;;19.30;40.20;;;;;;5043146;28;20106;-43
2023/01/28 05:33:36;;;;;;;2.83;2.63;;;19.30;40.30;;;;;;5042916;28;20061;-43
2023/01/28 05:36:06;;;;;;;2.85;2.58;;;19.30;40.20;;;;;;5043133;28;20118;-43
2023/01/28 05:38:33;;;;;;;2.88;2.65;;;19.30;40.30;;;;;;5071601;28;20580;-44
2023/01/28 05:41:03;;;;;;;3.25;3.03;;;19.30;40.20;;;;;;5063229;28;20119;-45
2023/01/28 05:43:30;;;;;;;3.08;2.78;;;19.30;40.20;;;;;;5059745;28;20052;-47
2023/01/28 05:46:32;;;;;;;3.45;3.05;;;19.30;40.20;;;;;;5039360;28;20767;-45
2023/01/28 05:49:21;;;;;;;2.65;2.45;;;19.30;40.20;;;;;;5019309;28;20072;-43
2023/01/28 05:52:17;;;;;;;4.47;3.03;;;19.30;40.30;;;;;;5039591;28;20836;-42
2023/01/28 05:54:47;;;;;;;2.45;2.28;;;19.20;40.30;;;;;;5024650;28;20307;-46
2023/01/28 05:57:15;;;;;;;4.35;3.95;;;19.30;40.40;;;;;;5021033;28;20072;-46
2023/01/28 05:59:42;;;;;;;2.22;2.13;;;19.30;40.10;;;;;;5021321;28;20525;-43
2023/01/28 06:02:10;;;;;;;3.50;3.20;;;19.30;40.20;;;;;;5020899;28;20049;-45
2023/01/28 06:04:39;;;;;;;3.53;3.25;;;19.30;40.20;;;;;;5021353;28;20120;-43
2023/01/28 06:07:07;;;;;;;3.88;3.60;;;19.30;40.30;;;;;;5021047;28;20453;-42
2023/01/28 06:09:36;;;;;;;3.58;2.97;;;19.30;40.20;;;;;;5006558;28;20054;-42
2023/01/28 06:12:04;;;;;;;3.58;3.15;;;19.30;40.30;;;;;;5021272;28;20632;-43
2023/01/28 06:14:40;;;;;;;3.05;2.80;;;19.30;40.20;;;;;;5004778;28;20128;-44
2023/01/28 06:17:27;;;;;;;2.92;2.72;;;19.30;40.10;;;;;;5015524;28;20058;-45
2023/01/28 06:20:08;;;;;;;3.75;3.45;;;19.30;40.20;;;;;;5024646;28;20482;-44
2023/01/28 06:22:37;;;;;;;3.80;3.50;;;19.20;40.10;;;;;;5030318;28;20176;-48
2023/01/28 06:25:05;;;;;;;3.67;3.35;;;19.30;40.20;;;;;;5028298;28;20053;-47
2023/01/28 06:27:35;;;;;;;3.85;3.45;;;19.30;40.20;;;;;;5028055;28;20521;-49
2023/01/28 06:30:05;;;;;;;2.70;2.50;;;19.30;40.10;;;;;;5053208;28;20152;-43
2023/01/28 06:32:32;;;;;;;2.65;2.42;;;19.30;40.20;;;;;;5047229;28;20052;-55
2023/01/28 06:34:59;;;;;;;2.97;2.35;;;19.30;40.50;;;;;;5064589;28;20044;-42
2023/01/28 06:37:30;;;;;;;2.67;1.63;;;19.30;41.30;;;;;;5063648;28;20045;-44
2023/01/28 06:39:57;;;;;;;4.75;1.58;;;19.40;41.70;;;;;;5047442;28;20052;-47
2023/01/28 06:42:24;;;;;;;2.20;1.80;;;19.40;41.90;;;;;;5058770;28;20036;-44
2023/01/28 06:44:53;;;;;;;2.13;1.38;;;19.40;41.90;;;;;;5067580;28;20122;-47
2023/01/28 06:47:21;;;;;;;2.83;1.58;;;19.50;42.40;;;;;;5057983;28;20552;-48
2023/01/28 06:49:48;;;;;;;1.95;1.77;;;19.60;42.60;;;;;;5047586;28;20080;-49
2023/01/28 06:52:15;;;;;;;3.08;1.38;;;19.70;42.20;;;;;;5047358;28;20033;-47
2023/01/28 06:54:42;;;;;;;5.90;1.02;;;19.80;41.90;;;;;;5046100;28;20061;-47
2023/01/28 06:57:13;;;;;;;3.42;1.02;;;20.00;41.80;;;;;;5046852;28;20064;-44
2023/01/28 06:59:40;;;;;;;5.82;0.98;;;20.00;41.40;;;;;;5047162;28;20056;-44
2023/01/28 07:02:07;;;;;;;1.33;1.17;;;20.20;41.50;;;;;;5045616;28;20037;-43
2023/01/28 07:04:36;;;;;;;3.25;1.20;;;20.30;41.20;;;;;;5046801;28;20107;-43
2023/01/28 07:07:05;;;;;;;2.00;1.90;;;20.40;40.80;;;;;;5047057;28;20128;-47
2023/01/28 07:09:34;;;;;;;2.90;1.58;;;20.30;40.40;;;;;;5046934;28;20049;-43
2023/01/28 07:12:04;;;;;;;6.82;1.80;;;20.30;40.20;;;;;;5046965;28;20148;-43
2023/01/28 07:14:33;;;;;;;2.88;1.25;;;20.30;40.10;;;;;;5046964;28;20123;-43
2023/01/28 07:17:00;;;;;;;1.83;1.73;;;20.30;40.10;;;;;;5046614;28;20045;-43
2023/01/28 07:19:29;;;;;;;1.77;1.27;;;20.20;40.00;;;;;;5046925;28;20126;-43
2023/01/28 07:21:59;;;;;;;3.88;1.77;;;20.20;39.90;;;;;;5053110;28;20445;-43
2023/01/28 07:24:26;;;;;;;2.35;1.52;;;20.20;39.90;;;;;;5066965;28;20063;-47
2023/01/28 07:26:53;;;;;;;1.45;1.35;;;20.20;39.80;;;;;;5061568;28;20049;-43
2023/01/28 07:29:20;;;;;;;1.92;0.98;;;20.10;39.60;;;;;;5046430;28;20071;-42
2023/01/28 07:31:48;;;;;;;2.63;1.77;;;20.10;39.60;;;;;;5046694;28;20073;-44
2023/01/28 07:34:16;;;;;;;2.88;1.55;;;20.10;39.60;;;;;;5046014;28;20037;-46
2023/01/28 07:36:44;;;;;;;1.63;1.52;;;20.00;39.50;;;;;;5046667;28;20450;-42
2023/01/28 07:39:14;;;;;;;2.35;2.15;;;20.00;39.40;;;;;;5058306;28;20037;-42
2023/01/28 07:41:41;;;;;;;2.25;1.50;;;20.00;39.50;;;;;;5053230;28;20080;-43
2023/01/28 07:44:10;;;;;;;1.80;1.70;;;19.90;39.40;;;;;;5064715;28;20059;-45
2023/01/28 07:46:39;;;;;;;2.55;1.73;;;19.90;39.40;;;;;;5065096;28;20044;-45
2023/01/28 07:49:06;;;;;;;1.98;1.60;;;19.90;39.40;;;;;;5066859;28;20055;-45
2023/01/28 07:51:35;;;;;;;0.98;0.85;;;19.80;39.30;;;;;;5066368;28;20091;-43
2023/01/28 07:54:02;;;;;;;2.50;1.45;;;19.80;39.30;;;;;;5066370;28;20455;-43
2023/01/28 07:56:36;;;;;;;1.90;1.80;;;19.80;39.30;;;;;;5066025;28;20048;-46
2023/01/28 07:59:03;;;;;;;1.48;1.35;;;19.70;39.20;;;;;;5066227;28;20051;-44
2023/01/28 08:01:33;;;;;;;2.00;1.20;;;19.70;39.20;;;;;;5066243;28;20036;-44
2023/01/28 08:04:00;;;;;;;2.05;1.83;;;19.70;39.20;;;;;;5066166;28;20040;-44
2023/01/28 08:06:28;;;;;;;1.50;1.40;;;19.60;39.10;;;;;;5066143;28;20133;-45
2023/01/28 08:08:57;;;;;;;1.65;1.55;;;19.60;39.20;;;;;;5065964;28;20132;-46
2023/01/28 08:11:25;;;;;;;1.63;1.52;;;19.60;39.10;;;;;;5065593;28;20079;-48
2023/01/28 08:13:54;;;;;;;2.63;1.05;;;19.50;39.10;;;;;;5065865;28;20126;-44
2023/01/28 08:16:23;;;;;;;2.25;1.02;;;19.50;39.10;;;;;;5065611;28;20040;-43
2023/01/28 08:18:50;;;;;;;2.25;2.15;;;19.50;39.10;;;;;;5066315;28;20044;-47
2023/01/28 08:21:17;;;;;;;1.45;1.35;;;19.50;39.10;;;;;;5066017;28;20037;-45
2023/01/28 08:23:44;;;;;;;1.35;1.27;;;19.40;39.00;;;;;;5065951;28;20056;-46
2023/01/28 08:26:12;;;;;;;1.73;1.58;;;19.50;39.10;;;;;;5065483;28;20131;-43
2023/01/28 08:28:42;;;;;;;1.30;1.20;;;19.40;39.00;;;;;;5062307;28;20064;-44
2023/01/28 08:31:11;;;;;;;1.48;1.38;;;19.40;39.10;;;;;;5045633;28;20570;-45
2023/01/28 08:33:40;;;;;;;2.53;1.60;;;19.40;39.10;;;;;;5045454;28;20076;-44
2023/01/28 08:36:08;;;;;;;1.10;0.45;;;19.40;39.10;;;;;;5045393;28;20357;-46
2023/01/28 08:38:37;;;;;;;1.02;1.02;;;19.40;39.20;;;;;;5057892;28;20076;-47
2023/01/28 08:41:06;;;;;;;2.90;1.38;;;19.30;39.20;;;;;;5062182;28;20043;-43
2023/01/28 08:43:35;;;;;;;1.15;0.95;;;19.30;39.10;;;;;;5064954;28;20049;-43
2023/01/28 08:46:05;;;;;;;2.13;1.63;;;19.30;39.20;;;;;;5064376;28;20048;-45
2023/01/28 08:48:34;;;;;;;1.35;1.25;;;19.30;39.20;;;;;;5065149;28;20438;-47
2023/01/28 08:51:04;;;;;;;0.90;0.90;;;19.20;39.10;;;;;;5063640;28;20063;-43
2023/01/28 08:53:33;;;;;;;0.90;0.90;;;19.20;39.10;;;;;;5065149;28;20131;-44
2023/01/28 08:56:04;;;;;;;0.50;0.50;;;19.20;39.10;;;;;;5064875;28;20062;-45
2023/01/28 08:58:31;;;;;;;0.90;0.90;;;19.20;39.10;;;;;;5064571;28;20069;-43
2023/01/28 09:00:58;;;;;;;1.35;1.35;;;19.20;39.20;;;;;;5065303;28;20044;-45
2023/01/28 09:03:30;;;;;;;0.88;0.88;;;19.20;39.10;;;;;;5065250;28;20803;-45
2023/01/28 09:06:01;;;;;;;0.65;0.65;;;19.10;39.10;;;;;;5064979;28;20124;-45
2023/01/28 09:08:30;;;;;;;0.70;0.70;;;19.10;39.10;;;;;;5065112;28;20078;-42
2023/01/28 09:11:00;;;;;;;1.20;0.60;;;19.10;39.10;;;;;;5064821;28;20037;-48
2023/01/28 09:13:30;;;;;;;0.30;0.30;;;19.10;39.10;;;;;;5064993;28;20083;-43
2023/01/28 09:16:00;;;;;;;2.47;0.38;;;19.10;39.00;;;;;;5064796;28;20435;-42
2023/01/28 09:18:28;;;;;;;0.50;0.50;;;19.00;38.90;;;;;;5064668;28;20458;-43
2023/01/28 09:20:55;;;;;;;1.20;0.73;;;19.00;38.90;;;;;;5064679;28;20881;-43
2023/01/28 09:23:23;;;;;;;1.92;0.55;;;19.10;39.00;;;;;;5064583;28;20041;-43
2023/01/28 09:25:59;;;;;;;1.25;0.40;;;19.00;39.00;;;;;;5064787;28;20159;-43
2023/01/28 09:28:26;;;;;;;1.48;0.40;;;19.00;38.90;;;;;;5063938;28;20072;-46
2023/01/28 09:30:53;;;;;;;0.70;0.68;;;19.00;39.00;;;;;;5044754;28;20033;-43
2023/01/28 09:33:20;;;;;;;0.38;0.38;;;19.00;38.90;;;;;;5044586;28;20186;-47
2023/01/28 09:35:47;;;;;;;0.60;0.60;;;19.00;39.00;;;;;;5044890;28;20045;-43
2023/01/28 09:38:15;;;;;;;0.98;0.98;;;19.00;39.00;;;;;;5055423;28;20067;-45
2023/01/28 09:40:44;;;;;;;1.00;0.73;;;19.00;38.90;;;;;;5064321;28;20131;-45
2023/01/28 09:43:32;;;;;;;1.30;0.40;;;18.90;38.80;;;;;;5064881;28;20048;-43
2023/01/28 09:46:04;;;;;;;0.90;0.50;;;19.00;38.90;;;;;;5064782;28;20040;-43
2023/01/28 09:48:37;;;;;;;0.40;0.30;;;18.90;38.90;;;;;;5064703;28;20072;-43
2023/01/28 09:51:09;;;;;;;0.30;0.30;;;18.90;38.80;;;;;;5064647;28;20036;-46
2023/01/28 09:53:43;;;;;;;0.75;0.75;;;18.90;38.80;;;;;;5063296;28;20047;-44
2023/01/28 09:56:15;;;;;;;0.80;0.80;;;18.90;38.80;;;;;;5064005;28;20163;-46
2023/01/28 09:58:44;;;;;;;0.60;0.60;;;18.90;38.80;;;;;;5067571;28;20045;-45
2023/01/28 10:01:31;;;;;;;0.47;0.45;;;18.90;38.80;;;;;;5067386;28;20049;-44
2023/01/28 10:04:05;;;;;;;0.47;0.47;;;18.90;38.70;;;;;;5068936;28;20121;-44
2023/01/28 10:06:47;;;;;;;0.90;0.57;;;18.80;38.70;;;;;;5069204;28;20051;-50
2023/01/28 10:09:24;;;;;;;0.60;0.60;;;18.80;38.70;;;;;;5068782;28;20113;-45
2023/01/28 10:12:06;;;;;;;0.68;0.68;;;18.80;38.80;;;;;;5069047;28;20500;-44
2023/01/28 10:14:52;;;;;;;0.88;0.82;;;18.80;38.70;;;;;;5068606;28;20476;-42
2023/01/28 10:17:26;;;;;;;0.65;0.43;;;18.80;38.70;;;;;;5068425;28;20076;-43
2023/01/28 10:19:59;;;;;;;0.63;0.63;;;18.80;38.70;;;;;;5068709;28;20839;-43
2023/01/28 10:22:34;;;;;;;1.02;0.70;;;18.70;38.70;;;;;;5068443;28;20118;-44
2023/01/28 10:25:16;;;;;;;0.80;0.57;;;18.70;38.70;;;;;;5067835;28;20044;-44
2023/01/28 10:27:45;;;;;;;1.20;0.40;;;18.70;38.70;;;;;;5068080;28;20125;-48
2023/01/28 10:30:19;;;;;;;3.05;0.50;;;18.70;38.70;;;;;;5052397;28;20140;-43
2023/01/28 10:32:53;;;;;;;0.40;0.38;;;18.70;38.70;;;;;;5047738;28;20471;-43
2023/01/28 10:35:20;;;;;;;0.45;0.45;;;18.70;38.60;;;;;;5049468;28;20128;-44
2023/01/28 10:37:53;;;;;;;0.43;0.40;;;18.70;38.60;;;;;;5067588;28;20048;-45
2023/01/28 10:40:20;;;;;;;0.47;0.47;;;18.70;38.60;;;;;;5068064;28;20464;-45
2023/01/28 10:42:50;;;;;;;0.68;0.47;;;18.70;38.60;;;;;;5067856;28;20041;-45
2023/01/28 10:45:20;;;;;;;0.50;0.50;;;18.70;38.60;;;;;;5066375;28;20127;-44
2023/01/28 10:47:51;;;;;;;0.38;0.38;;;18.60;38.50;;;;;;5055565;28;20717;-46
2023/01/28 10:50:22;;;;;;;1.20;0.80;;;18.60;38.50;;;;;;5048064;28;20099;-43
2023/01/28 10:52:55;;;;;;;0.55;0.55;;;18.60;38.50;;;;;;5047483;28;20049;-47
2023/01/28 10:55:24;;;;;;;0.45;0.45;;;18.60;38.50;;;;;;5052768;28;20519;-43
2023/01/28 10:57:53;;;;;;;0.55;0.55;;;18.60;38.50;;;;;;5067605;28;20064;-43
2023/01/28 11:00:26;;;;;;;0.47;0.45;;;18.60;38.40;;;;;;5067534;28;20055;-44
2023/01/28 11:02:54;;;;;;;0.60;0.60;;;18.60;38.40;;;;;;5067421;28;20210;-43
2023/01/28 11:05:27;;;;;;;0.32;0.20;;;18.60;38.40;;;;;;5067215;28;20049;-44
2023/01/28 11:08:05;;;;;;;0.77;0.77;;;18.60;39.10;;;;;;5066946;28;20045;-43
2023/01/28 11:10:36;;;;;;;0.60;0.32;;;18.60;38.40;;;;;;5065173;28;20052;-44
2023/01/28 11:13:16;;;;;;;2.45;0.55;;;18.50;38.30;;;;;;5066939;28;20143;-44
2023/01/28 11:15:48;;;;;;;0.60;0.25;;;18.60;38.40;;;;;;5067331;28;20123;-44
2023/01/28 11:18:23;;;;;;;0.60;0.50;;;18.50;38.40;;;;;;5067026;28;20501;-41
2023/01/28 11:20:55;;;;;;;0.60;0.40;;;18.50;38.40;;;;;;5067177;28;20051;-45
2023/01/28 11:23:26;;;;;;;0.50;0.50;;;18.50;38.40;;;;;;5066530;28;20048;-43
2023/01/28 11:26:04;;;;;;;0.40;0.30;;;18.60;38.40;;;;;;5067076;28;20037;-43
2023/01/28 11:28:41;;;;;;;1.50;0.55;;;18.50;38.30;;;;;;5064975;28;20135;-43
2023/01/28 11:31:12;;;;;;;0.82;0.82;;;18.50;38.30;;;;;;5047089;28;20056;-46
2023/01/28 11:33:45;;;;;;;0.88;0.88;;;18.50;38.30;;;;;;5046748;28;20048;-43
2023/01/28 11:36:15;;;;;;;0.68;0.68;;;18.50;38.30;;;;;;5046549;28;20768;-43
2023/01/28 11:38:50;;;;;;;0.40;0.40;;;18.50;38.30;;;;;;5059934;28;20044;-43
2023/01/28 11:41:28;;;;;;;0.20;0.20;;;18.50;38.30;;;;;;5066696;28;20037;-43
2023/01/28 11:43:57;;;;;;;0.40;0.40;;;18.50;38.30;;;;;;5057226;28;20068;-45
2023/01/28 11:46:48;;;;;;;2.83;0.68;;;18.50;38.30;;;;;;5066402;28;20046;-42
2023/01/28 11:49:25;;;;;;;0.40;0.40;;;18.50;38.20;;;;;;5066900;28;20045;-43
2023/01/28 11:52:00;;;;;;;0.40;0.40;;;18.50;38.30;;;;;;5064745;28;20041;-45
2023/01/28 11:54:47;;;;;;;0.50;0.50;;;18.50;38.30;;;;;;5066624;28;20215;-44
2023/01/28 11:57:23;;;;;;;0.40;0.38;;;18.40;38.20;;;;;;5046655;28;20140;-46
2023/01/28 12:00:03;;;;;;;0.63;0.50;;;18.50;38.30;;;;;;5046626;28;20874;-43
2023/01/28 12:02:53;;;;;;;0.82;0.60;;;18.40;38.20;;;;;;5046988;28;20038;-43
2023/01/28 12:05:39;;;;;;;0.55;0.55;;;18.50;38.30;;;;;;5046278;28;20052;-43
2023/01/28 12:08:18;;;;;;;0.32;0.30;;;18.50;38.20;;;;;;5054557;28;20127;-43
2023/01/28 12:10:57;;;;;;;0.73;0.50;;;18.50;38.20;;;;;;5066782;28;20789;-43
2023/01/28 12:13:36;;;;;;;0.90;0.57;;;18.50;38.20;;;;;;5066341;28;20048;-44
2023/01/28 12:16:39;;;;;;;0.40;0.40;;;18.50;38.10;;;;;;5066241;28;20064;-45
2023/01/28 12:19:30;;;;;;;0.65;0.30;;;18.50;38.10;;;;;;5066391;28;20512;-43
2023/01/28 12:22:14;;;;;;;0.40;0.40;;;18.50;38.00;;;;;;5066223;28;20131;-44
2023/01/28 12:24:57;;;;;;;0.95;0.52;;;18.50;38.00;;;;;;5066151;28;20343;-44
2023/01/28 12:27:44;;;;;;;0.57;0.50;;;18.50;38.00;;;;;;5045921;28;20143;-43
2023/01/28 12:30:25;;;;;;;0.55;0.55;;;18.50;37.90;;;;;;5045486;28;20047;-45
2023/01/28 12:33:19;;;;;;;0.60;0.60;;;18.50;37.90;;;;;;5045879;28;20140;-45
2023/01/28 12:35:57;;;;;;;0.73;0.50;;;18.50;37.90;;;;;;5037070;28;20083;-43
2023/01/28 12:38:35;;;;;;;1.75;0.50;;;18.50;37.90;;;;;;5056680;28;20587;-46
2023/01/28 12:41:08;;;;;;;1.17;0.50;;;18.50;37.80;;;;;;5065305;28;20072;-43
2023/01/28 12:43:45;;;;;;;0.60;0.60;;;18.50;37.80;;;;;;5065283;28;20063;-45
2023/01/28 12:46:22;;;;;;;0.60;0.60;;;18.50;37.80;;;;;;5065607;28;20101;-45
2023/01/28 12:48:57;;;;;;;0.47;0.47;;;18.50;37.70;;;;;;5063635;28;20114;-44
2023/01/28 12:51:30;;;;;;;0.40;0.40;;;18.50;37.70;;;;;;5064508;28;20127;-43
2023/01/28 12:54:02;;;;;;;0.57;0.40;;;18.50;37.70;;;;;;5065480;28;20045;-47
2023/01/28 12:56:33;;;;;;;0.63;0.43;;;18.50;37.70;;;;;;5065014;28;20065;-46
2023/01/28 12:59:13;;;;;;;0.70;0.57;;;18.50;37.60;;;;;;5065277;28;20041;-45
2023/01/28 13:01:44;;;;;;;0.73;0.50;;;18.50;37.60;;;;;;5064681;28;20331;-46
2023/01/28 13:04:31;;;;;;;1.85;0.98;;;18.50;37.60;;;;;;5064463;28;20126;-48
2023/01/28 13:07:05;;;;;;;1.70;0.60;;;18.50;37.60;;;;;;5064973;28;20094;-44
2023/01/28 13:09:36;;;;;;;0.88;0.60;;;18.50;37.50;;;;;;5060297;28;20500;-43
2023/01/28 13:12:06;;;;;;;0.88;0.88;;;18.50;37.50;;;;;;5044792;28;20041;-46
2023/01/28 13:14:34;;;;;;;0.60;0.50;;;18.50;37.40;;;;;;5045008;28;20064;-43
2023/01/28 13:17:10;;;;;;;0.90;0.75;;;18.50;37.40;;;;;;5044298;28;20045;-46
2023/01/28 13:19:40;;;;;;;0.40;0.40;;;18.50;37.40;;;;;;5044537;28;20064;-45
2023/01/28 13:22:12;;;;;;;1.15;0.90;;;18.50;37.30;;;;;;5044888;28;20073;-45
2023/01/28 13:24:39;;;;;;;1.02;0.55;;;18.50;37.30;;;;;;5045370;28;20471;-45
2023/01/28 13:27:21;;;;;;;1.23;0.80;;;18.50;37.20;;;;;;5064777;28;20047;-44
2023/01/28 13:29:49;;;;;;;0.52;0.52;;;18.50;37.20;;;;;;5053168;28;20049;-43
2023/01/28 13:32:29;;;;;;;1.00;0.90;;;18.50;37.20;;;;;;5044105;28;20040;-43
2023/01/28 13:35:00;;;;;;;1.23;0.52;;;18.50;37.10;;;;;;5045174;28;20041;-46
2023/01/28 13:37:31;;;;;;;1.00;0.60;;;18.50;37.10;;;;;;5047440;28;20051;-45
2023/01/28 13:40:08;;;;;;;1.15;0.70;;;18.50;37.10;;;;;;5065561;28;20048;-45
2023/01/28 13:42:35;;;;;;;1.02;1.02;;;18.50;37.10;;;;;;5065082;28;20123;-48